createdAt,value
2017-10-02T00:00:44.372Z,12.70
2017-10-02T00:03:11.812Z,12.60
2017-10-02T00:05:40.041Z,12.50
2017-10-02T00:08:07.492Z,12.50
2017-10-02T00:10:34.975Z,12.50
2017-10-02T00:13:02.420Z,12.40
2017-10-02T00:15:29.876Z,12.40
2017-10-02T00:17:57.320Z,12.40
2017-10-02T00:20:24.787Z,12.40
2017-10-02T00:22:52.240Z,12.40
2017-10-02T00:25:20.460Z,12.60
2017-10-02T00:27:47.916Z,12.60
2017-10-02T00:30:15.355Z,12.80
2017-10-02T00:32:42.813Z,12.60
2017-10-02T00:35:10.294Z,12.60
2017-10-02T00:37:37.725Z,12.50
2017-10-02T00:40:05.194Z,12.60
2017-10-02T00:42:33.423Z,12.50
2017-10-02T00:45:00.897Z,12.50
2017-10-02T00:47:28.354Z,12.60
2017-10-02T00:49:55.824Z,12.60
2017-10-02T00:52:24.084Z,12.50
2017-10-02T00:54:52.303Z,12.50
2017-10-02T00:57:19.784Z,12.50
2017-10-02T00:59:47.235Z,12.60
2017-10-02T01:02:14.723Z,12.50
2017-10-02T01:04:42.205Z,12.50
2017-10-02T01:07:09.697Z,12.40
2017-10-02T01:09:37.159Z,12.30
2017-10-02T01:12:04.638Z,12.30
2017-10-02T01:14:32.103Z,12.30
2017-10-02T01:16:59.548Z,12.50
2017-10-02T01:19:27.124Z,12.50
2017-10-02T01:21:55.387Z,12.70
2017-10-02T01:24:22.865Z,12.60
2017-10-02T01:29:25.927Z,12.80
2017-10-02T01:31:54.131Z,12.70
2017-10-02T01:34:21.560Z,12.70
2017-10-02T01:36:49.789Z,12.80
2017-10-02T01:39:17.256Z,12.80
2017-10-02T01:41:44.691Z,13.00
2017-10-02T01:44:12.126Z,13.10
2017-10-02T01:46:39.583Z,13.00
2017-10-02T01:49:07.061Z,13.10
2017-10-02T01:51:34.535Z,13.00
2017-10-02T01:54:02.008Z,13.00
2017-10-02T01:56:29.452Z,12.90
2017-10-02T01:58:56.907Z,12.90
2017-10-02T02:01:24.340Z,12.80
2017-10-02T02:03:51.795Z,12.80
2017-10-02T02:06:19.245Z,12.80
2017-10-02T02:08:46.708Z,12.80
2017-10-02T02:11:14.165Z,12.90
2017-10-02T02:13:41.735Z,12.90
2017-10-02T02:16:09.181Z,12.80
2017-10-02T02:18:36.651Z,12.90
2017-10-02T02:21:04.147Z,13.00
2017-10-02T02:23:32.351Z,12.90
2017-10-02T02:25:59.820Z,12.90
2017-10-02T02:28:27.282Z,12.80
2017-10-02T02:30:54.769Z,12.80
2017-10-02T02:33:22.200Z,12.90
2017-10-02T02:35:49.663Z,12.80
2017-10-02T02:38:17.096Z,12.80
2017-10-02T02:40:44.554Z,12.80
2017-10-02T02:43:12.002Z,12.80
2017-10-02T02:45:39.456Z,12.70
2017-10-02T02:48:06.900Z,12.70
2017-10-02T02:50:34.347Z,12.70
2017-10-02T02:53:02.573Z,12.70
2017-10-02T02:55:30.785Z,12.80
2017-10-02T02:57:59.004Z,12.80
2017-10-02T03:00:26.450Z,12.80
2017-10-02T03:02:53.891Z,12.80
2017-10-02T03:05:21.791Z,12.80
2017-10-02T03:07:49.995Z,12.90
2017-10-02T03:10:17.452Z,12.90
2017-10-02T03:12:44.910Z,12.90
2017-10-02T03:15:12.380Z,12.90
2017-10-02T03:17:40.616Z,12.90
2017-10-02T03:20:08.055Z,12.80
2017-10-02T03:22:35.487Z,12.90
2017-10-02T03:25:03.000Z,12.90
2017-10-02T03:27:30.440Z,12.90
2017-10-02T03:29:57.872Z,12.90
2017-10-02T03:32:25.341Z,12.90
2017-10-02T03:34:52.776Z,12.90
2017-10-02T03:37:20.228Z,12.80
2017-10-02T03:39:47.703Z,12.70
2017-10-02T03:42:15.212Z,12.70
2017-10-02T03:44:42.674Z,12.70
2017-10-02T03:47:10.871Z,12.70
2017-10-02T03:49:38.330Z,12.60
2017-10-02T03:52:05.780Z,12.80
2017-10-02T03:54:33.234Z,12.80
2017-10-02T03:57:00.691Z,12.80
2017-10-02T03:59:28.148Z,12.90
2017-10-02T04:01:55.611Z,12.80
2017-10-02T04:04:23.058Z,12.80
2017-10-02T04:06:50.519Z,12.90
2017-10-02T04:09:17.964Z,12.80
2017-10-02T04:11:46.227Z,12.80
2017-10-02T04:14:14.463Z,12.90
2017-10-02T04:16:41.916Z,12.90
2017-10-02T04:19:10.120Z,12.80
2017-10-02T04:21:37.555Z,12.80
2017-10-02T04:24:05.023Z,12.80
2017-10-02T04:26:32.466Z,12.80
2017-10-02T04:28:59.931Z,12.80
2017-10-02T04:31:27.405Z,12.70
2017-10-02T04:33:54.883Z,12.80
2017-10-02T04:36:22.314Z,12.90
2017-10-02T04:38:49.772Z,12.90
2017-10-02T04:41:17.228Z,13.00
2017-10-02T04:43:44.680Z,12.90
2017-10-02T04:46:12.131Z,12.90
2017-10-02T04:48:39.571Z,12.90
2017-10-02T04:51:07.040Z,12.90
2017-10-02T04:53:34.487Z,12.90
2017-10-02T04:56:01.929Z,13.00
2017-10-02T04:58:30.180Z,12.90
2017-10-02T05:00:57.658Z,13.00
2017-10-02T05:03:25.108Z,13.00
2017-10-02T05:05:52.543Z,13.10
2017-10-02T05:08:20.020Z,13.10
2017-10-02T05:10:47.460Z,13.10
2017-10-02T05:13:14.923Z,13.10
2017-10-02T05:15:42.388Z,13.10
2017-10-02T05:18:09.843Z,13.20
2017-10-02T05:20:37.316Z,13.10
2017-10-02T05:23:04.756Z,13.10
2017-10-02T05:25:32.210Z,13.10
2017-10-02T05:27:59.700Z,13.10
2017-10-02T05:30:27.154Z,13.10
2017-10-02T05:32:54.610Z,13.10
2017-10-02T05:35:22.099Z,13.00
2017-10-02T05:37:50.331Z,12.80
2017-10-02T05:40:17.821Z,12.80
2017-10-02T05:42:46.042Z,12.70
2017-10-02T05:45:13.500Z,12.70
2017-10-02T05:47:40.955Z,12.80
2017-10-02T05:50:08.415Z,12.70
2017-10-02T05:52:35.890Z,12.80
2017-10-02T05:55:03.411Z,12.80
2017-10-02T05:57:30.889Z,12.80
2017-10-02T05:59:58.327Z,12.80
2017-10-02T06:02:25.788Z,12.90
2017-10-02T06:04:53.243Z,13.00
2017-10-02T06:07:20.716Z,13.00
2017-10-02T06:09:48.167Z,13.10
2017-10-02T06:12:15.604Z,13.10
2017-10-02T06:14:43.060Z,13.10
2017-10-02T06:17:10.504Z,13.10
2017-10-02T06:19:37.949Z,13.10
2017-10-02T06:22:06.148Z,13.10
2017-10-02T06:24:33.619Z,13.10
2017-10-02T06:27:01.059Z,13.20
2017-10-02T06:29:28.505Z,13.20
2017-10-02T06:31:55.962Z,13.30
2017-10-02T06:34:23.397Z,13.30
2017-10-02T06:36:51.644Z,13.30
2017-10-02T06:39:19.151Z,13.30
2017-10-02T06:41:46.598Z,13.30
2017-10-02T06:44:14.807Z,13.30
2017-10-02T06:46:42.268Z,13.30
2017-10-02T06:49:09.708Z,13.30
2017-10-02T06:51:37.162Z,13.30
2017-10-02T06:54:04.605Z,13.20
2017-10-02T06:56:32.062Z,13.30
2017-10-02T06:58:59.508Z,13.20
2017-10-02T07:01:27.728Z,13.10
2017-10-02T07:03:55.188Z,13.20
2017-10-02T07:06:23.145Z,13.10
2017-10-02T07:08:50.601Z,13.00
2017-10-02T07:11:18.056Z,13.00
2017-10-02T07:13:45.528Z,13.00
2017-10-02T07:16:13.018Z,12.90
2017-10-02T07:18:41.269Z,12.80
2017-10-02T07:21:08.801Z,12.90
2017-10-02T07:23:36.279Z,12.80
2017-10-02T07:26:03.746Z,12.80
2017-10-02T07:28:31.189Z,12.80
2017-10-02T07:30:58.668Z,12.90
2017-10-02T07:33:26.116Z,12.90
2017-10-02T07:35:53.563Z,12.80
2017-10-02T07:38:21.038Z,12.90
2017-10-02T07:40:49.252Z,12.90
2017-10-02T07:43:16.709Z,12.90
2017-10-02T07:45:44.178Z,12.80
2017-10-02T07:48:11.662Z,12.80
2017-10-02T07:50:39.103Z,12.90
2017-10-02T07:53:06.571Z,12.80
2017-10-02T07:55:34.038Z,12.90
2017-10-02T07:58:01.517Z,12.90
2017-10-02T08:00:29.760Z,13.00
2017-10-02T08:02:57.217Z,13.00
2017-10-02T08:05:24.659Z,12.90
2017-10-02T08:07:52.131Z,12.90
2017-10-02T08:10:19.580Z,13.00
2017-10-02T08:12:47.160Z,13.00
2017-10-02T08:15:14.598Z,13.00
2017-10-02T08:17:42.045Z,13.10
2017-10-02T08:20:09.515Z,13.20
2017-10-02T08:22:36.985Z,13.10
2017-10-02T08:25:04.444Z,13.20
2017-10-02T08:27:32.660Z,13.10
2017-10-02T08:30:00.144Z,13.10
2017-10-02T08:32:27.597Z,13.20
2017-10-02T08:34:55.040Z,13.20
2017-10-02T08:37:22.820Z,13.30
2017-10-02T08:39:50.257Z,13.40
2017-10-02T08:42:17.747Z,13.40
2017-10-02T08:44:45.198Z,13.40
2017-10-02T08:47:12.681Z,13.40
2017-10-02T08:49:40.885Z,13.30
2017-10-02T08:52:09.051Z,13.30
2017-10-02T08:54:36.511Z,13.30
2017-10-02T08:57:03.969Z,13.30
2017-10-02T08:59:31.429Z,13.30
2017-10-02T09:01:58.869Z,13.30
2017-10-02T09:04:26.344Z,13.40
2017-10-02T09:06:53.835Z,13.50
2017-10-02T09:09:21.284Z,13.60
2017-10-02T09:11:48.736Z,13.50
2017-10-02T09:14:16.187Z,13.60
2017-10-02T09:16:43.664Z,13.70
2017-10-02T09:19:11.141Z,13.70
2017-10-02T09:21:38.578Z,13.70
2017-10-02T09:24:06.039Z,13.60
2017-10-02T09:26:33.468Z,13.70
2017-10-02T09:29:00.924Z,13.70
2017-10-02T09:31:28.383Z,13.80
2017-10-02T09:33:55.834Z,13.80
2017-10-02T09:36:23.292Z,13.90
2017-10-02T09:38:50.732Z,14.00
2017-10-02T09:41:18.172Z,14.00
2017-10-02T09:43:45.627Z,14.10
2017-10-02T09:46:13.139Z,14.10
2017-10-02T09:48:40.607Z,14.10
2017-10-02T09:51:08.044Z,14.10
2017-10-02T09:53:35.507Z,14.10
2017-10-02T09:56:02.943Z,14.10
2017-10-02T09:58:30.401Z,14.20
2017-10-02T10:00:57.848Z,14.20
2017-10-02T10:03:25.296Z,14.10
2017-10-02T10:05:52.756Z,14.10
2017-10-02T10:08:20.244Z,14.20
2017-10-02T10:10:47.768Z,14.20
2017-10-02T10:13:15.211Z,14.20
2017-10-02T10:15:42.671Z,14.20
2017-10-02T10:18:10.124Z,14.30
2017-10-02T10:20:37.578Z,14.30
2017-10-02T10:23:05.045Z,14.20
2017-10-02T10:25:32.503Z,14.20
2017-10-02T10:27:59.973Z,14.20
2017-10-02T10:30:27.432Z,14.30
2017-10-02T10:32:54.895Z,14.30
2017-10-02T10:35:22.375Z,14.20
2017-10-02T10:37:49.811Z,14.20
2017-10-02T10:40:17.270Z,14.30
2017-10-02T10:42:44.708Z,14.30
2017-10-02T10:45:12.171Z,14.30
2017-10-02T10:47:40.372Z,14.30
2017-10-02T10:50:07.840Z,14.30
2017-10-02T10:52:36.047Z,14.40
2017-10-02T10:55:04.264Z,14.40
2017-10-02T10:57:31.847Z,14.40
2017-10-02T11:00:00.120Z,14.40
2017-10-02T11:02:27.553Z,14.40
2017-10-02T11:04:54.993Z,14.40
2017-10-02T11:07:22.476Z,14.40
2017-10-02T11:09:49.913Z,14.30
2017-10-02T11:12:17.387Z,14.30
2017-10-02T11:14:44.852Z,14.40
2017-10-02T11:17:12.295Z,14.40
2017-10-02T11:19:39.732Z,14.30
2017-10-02T11:22:07.200Z,14.30
2017-10-02T11:24:34.667Z,14.30
2017-10-02T11:27:02.097Z,14.40
2017-10-02T11:29:29.560Z,14.50
2017-10-02T11:31:57.008Z,14.50
2017-10-02T11:34:24.479Z,14.50
2017-10-02T11:36:51.944Z,14.60
2017-10-02T11:39:19.418Z,14.60
2017-10-02T11:41:46.896Z,14.60
2017-10-02T11:44:15.109Z,14.50
2017-10-02T11:46:42.555Z,14.50
2017-10-02T11:49:10.053Z,14.50
2017-10-02T11:51:37.616Z,14.50
2017-10-02T11:54:05.057Z,14.50
2017-10-02T11:56:32.558Z,14.50
2017-10-02T11:58:59.999Z,14.50
2017-10-02T12:01:28.224Z,14.40
2017-10-02T12:03:55.675Z,14.40
2017-10-02T12:06:23.212Z,14.40
2017-10-02T12:08:50.673Z,14.50
2017-10-02T12:11:18.127Z,14.50
2017-10-02T12:13:45.583Z,14.50
2017-10-02T12:16:13.065Z,14.50
2017-10-02T12:18:40.516Z,14.60
2017-10-02T12:21:07.969Z,14.60
2017-10-02T12:23:35.435Z,14.70
2017-10-02T12:26:02.892Z,14.70
2017-10-02T12:28:30.347Z,14.80
2017-10-02T12:30:57.828Z,14.80
2017-10-02T12:33:25.292Z,14.80
2017-10-02T12:35:52.727Z,14.90
2017-10-02T12:38:20.182Z,14.90
2017-10-02T12:40:48.387Z,15.10
2017-10-02T12:43:16.608Z,15.10
2017-10-02T12:45:44.066Z,15.00
2017-10-02T12:48:11.527Z,15.10
2017-10-02T12:50:38.970Z,15.10
2017-10-02T12:53:06.404Z,15.20
2017-10-02T12:55:33.872Z,15.30
2017-10-02T12:58:01.308Z,15.20
2017-10-02T13:00:29.507Z,15.20
2017-10-02T13:02:56.972Z,15.20
2017-10-02T13:05:24.425Z,15.30
2017-10-02T13:07:51.876Z,15.30
2017-10-02T13:10:19.324Z,15.40
2017-10-02T13:12:46.780Z,15.40
2017-10-02T13:15:14.240Z,15.40
2017-10-02T13:17:41.667Z,15.40
2017-10-02T13:20:09.895Z,15.30
2017-10-02T13:22:37.377Z,15.30
2017-10-02T13:25:04.812Z,15.20
2017-10-02T13:27:32.275Z,15.20
2017-10-02T13:29:59.717Z,15.30
2017-10-02T13:32:27.179Z,15.20
2017-10-02T13:34:54.642Z,15.10
2017-10-02T13:37:22.079Z,15.10
2017-10-02T13:39:49.534Z,15.10
2017-10-02T13:42:16.972Z,15.00
2017-10-02T13:44:44.435Z,15.00
2017-10-02T13:47:11.940Z,15.00
2017-10-02T13:49:39.392Z,15.00
2017-10-02T13:52:06.833Z,15.00
2017-10-02T13:54:34.284Z,15.00
2017-10-02T13:57:02.489Z,15.00
2017-10-02T13:59:29.951Z,15.00
2017-10-02T14:01:58.186Z,15.10
2017-10-02T14:04:25.620Z,15.10
2017-10-02T14:06:53.168Z,15.10
2017-10-02T14:09:20.644Z,15.10
2017-10-02T14:11:48.119Z,15.10
2017-10-02T14:14:15.560Z,15.10
2017-10-02T14:16:43.017Z,15.10
2017-10-02T14:19:10.476Z,15.10
2017-10-02T14:21:37.944Z,15.10
2017-10-02T14:24:05.385Z,15.20
2017-10-02T14:26:32.834Z,15.20
2017-10-02T14:29:00.279Z,15.20
2017-10-02T14:31:27.760Z,15.20
2017-10-02T14:33:55.231Z,15.20
2017-10-02T14:36:22.684Z,15.30
2017-10-02T14:38:50.128Z,15.30
2017-10-02T14:41:17.588Z,15.30
2017-10-02T14:43:45.148Z,15.30
2017-10-02T14:46:12.584Z,15.40
2017-10-02T14:48:40.040Z,15.40
2017-10-02T14:51:07.487Z,15.40
2017-10-02T14:53:35.004Z,15.50
2017-10-02T14:56:02.460Z,15.40
2017-10-02T14:58:29.913Z,15.40
2017-10-02T15:00:57.349Z,15.40
2017-10-02T15:03:24.813Z,15.50
2017-10-02T15:05:52.301Z,15.50
2017-10-02T15:08:20.522Z,15.50
2017-10-02T15:10:47.950Z,15.50
2017-10-02T15:13:15.404Z,15.50
2017-10-02T15:15:42.847Z,15.50
2017-10-02T15:18:11.068Z,15.60
2017-10-02T15:20:38.536Z,15.60
2017-10-02T15:23:06.036Z,15.70
2017-10-02T15:25:34.259Z,15.80
2017-10-02T15:28:01.740Z,15.80
2017-10-02T15:30:29.200Z,15.80
2017-10-02T15:32:56.640Z,15.80
2017-10-02T15:35:24.085Z,15.80
2017-10-02T15:37:52.303Z,15.90
2017-10-02T15:40:20.505Z,15.90
2017-10-02T15:42:47.955Z,15.90
2017-10-02T15:45:15.399Z,15.90
2017-10-02T15:47:42.864Z,15.90
2017-10-02T15:50:10.311Z,15.90
2017-10-02T15:52:37.785Z,15.90
2017-10-02T15:55:05.258Z,16.00
2017-10-02T15:57:32.720Z,16.00
2017-10-02T16:00:00.210Z,16.10
2017-10-02T16:02:27.656Z,16.10
2017-10-02T16:04:55.116Z,16.10
2017-10-02T16:07:22.566Z,16.20
2017-10-02T16:09:50.033Z,16.20
2017-10-02T16:12:17.520Z,16.30
2017-10-02T16:14:44.971Z,16.30
2017-10-02T16:17:12.427Z,16.40
2017-10-02T16:19:39.868Z,16.30
2017-10-02T16:22:08.102Z,16.30
2017-10-02T16:24:35.535Z,16.30
2017-10-02T16:27:02.973Z,16.20
2017-10-02T16:29:30.491Z,16.20
2017-10-02T16:31:57.931Z,16.10
2017-10-02T16:34:25.405Z,16.10
2017-10-02T16:36:52.884Z,16.10
2017-10-02T16:39:21.172Z,16.10
2017-10-02T16:41:48.631Z,16.00
2017-10-02T16:44:16.083Z,16.10
2017-10-02T16:46:43.524Z,16.00
2017-10-02T16:49:11.747Z,16.00
2017-10-02T16:51:39.212Z,16.00
2017-10-02T16:54:06.656Z,16.10
2017-10-02T16:56:34.114Z,16.10
2017-10-02T16:59:01.578Z,16.00
2017-10-02T17:01:29.040Z,16.10
2017-10-02T17:03:56.477Z,16.10
2017-10-02T17:06:23.912Z,16.10
2017-10-02T17:08:51.374Z,16.10
2017-10-02T17:11:18.857Z,16.00
2017-10-02T17:13:46.312Z,16.00
2017-10-02T17:16:13.752Z,16.00
2017-10-02T17:18:41.217Z,16.00
2017-10-02T17:21:08.673Z,16.10
2017-10-02T17:23:36.152Z,16.10
2017-10-02T17:26:03.587Z,16.10
2017-10-02T17:28:31.019Z,16.10
2017-10-02T17:30:58.487Z,16.10
2017-10-02T17:33:25.948Z,16.10
2017-10-02T17:35:53.399Z,16.10
2017-10-02T17:38:20.851Z,16.00
2017-10-02T17:40:48.313Z,16.00
2017-10-02T17:43:15.748Z,16.00
2017-10-02T17:45:43.213Z,16.00
2017-10-02T17:48:10.656Z,15.90
2017-10-02T17:50:38.886Z,15.90
2017-10-02T17:53:06.324Z,15.80
2017-10-02T17:55:33.779Z,15.80
2017-10-02T17:58:01.245Z,15.70
2017-10-02T18:00:28.686Z,15.70
2017-10-02T18:02:56.148Z,15.70
2017-10-02T18:05:23.588Z,15.80
2017-10-02T18:07:51.072Z,15.80
2017-10-02T18:10:18.517Z,15.70
2017-10-02T18:12:45.980Z,15.80
2017-10-02T18:15:13.447Z,15.80
2017-10-02T18:17:40.889Z,15.80
2017-10-02T18:20:08.352Z,15.80
2017-10-02T18:22:35.828Z,15.80
2017-10-02T18:25:03.280Z,15.80
2017-10-02T18:27:30.732Z,15.70
2017-10-02T18:29:58.171Z,15.70
2017-10-02T18:32:25.699Z,15.70
2017-10-02T18:34:53.144Z,15.70
2017-10-02T18:37:21.372Z,15.60
2017-10-02T18:39:48.800Z,15.60
2017-10-02T18:42:16.250Z,15.60
2017-10-02T18:44:43.728Z,15.60
2017-10-02T18:47:11.188Z,15.60
2017-10-02T18:49:38.655Z,15.60
2017-10-02T18:52:06.098Z,15.60
2017-10-02T18:54:33.560Z,15.60
2017-10-02T18:57:01.048Z,15.70
2017-10-02T18:59:28.501Z,15.60
2017-10-02T19:01:55.956Z,15.60
2017-10-02T19:04:23.412Z,15.60
2017-10-02T19:06:50.879Z,15.60
2017-10-02T19:09:18.332Z,15.60
2017-10-02T19:11:46.561Z,15.70
2017-10-02T19:14:14.040Z,15.70
2017-10-02T19:16:41.507Z,15.70
2017-10-02T19:19:09.003Z,15.70
2017-10-02T19:21:36.464Z,15.70
2017-10-02T19:24:03.943Z,15.70
2017-10-02T19:26:31.521Z,15.60
2017-10-02T19:28:58.998Z,15.60
2017-10-02T19:31:26.472Z,15.60
2017-10-02T19:33:54.683Z,15.60
2017-10-02T19:36:22.166Z,15.60
2017-10-02T19:38:49.631Z,15.60
2017-10-02T19:41:17.122Z,15.70
2017-10-02T19:43:45.430Z,15.70
2017-10-02T19:46:12.890Z,15.70
2017-10-02T19:48:40.342Z,15.70
2017-10-02T19:51:08.600Z,15.70
2017-10-02T19:53:36.045Z,15.80
2017-10-02T19:56:03.705Z,15.80
2017-10-02T19:58:32.009Z,15.80
2017-10-02T20:00:59.484Z,15.80
2017-10-02T20:03:26.917Z,15.80
2017-10-02T20:05:54.381Z,15.70
2017-10-02T20:08:21.858Z,15.70
2017-10-02T20:10:49.314Z,15.70
2017-10-02T20:13:16.792Z,15.80
2017-10-02T20:15:44.234Z,15.80
2017-10-02T20:18:11.696Z,15.70
2017-10-02T20:20:39.183Z,15.70
2017-10-02T20:23:07.527Z,15.80
2017-10-02T20:25:35.420Z,15.70
2017-10-02T20:28:03.660Z,15.70
2017-10-02T20:30:31.142Z,15.70
2017-10-02T20:32:59.389Z,15.70
2017-10-02T20:35:26.851Z,15.70
2017-10-02T20:37:54.296Z,15.70
2017-10-02T20:40:21.800Z,15.70
2017-10-02T20:42:49.992Z,15.70
2017-10-02T20:45:17.456Z,15.70
2017-10-02T20:47:44.920Z,15.70
2017-10-02T20:50:12.442Z,15.70
2017-10-02T20:52:41.371Z,15.60
2017-10-02T20:55:08.832Z,15.60
2017-10-02T20:57:36.295Z,15.60
2017-10-02T21:00:03.748Z,15.60
2017-10-02T21:02:31.216Z,15.60
2017-10-02T21:04:58.655Z,15.60
2017-10-02T21:07:26.122Z,15.60
2017-10-02T21:09:53.583Z,15.70
2017-10-02T21:12:21.018Z,15.60
2017-10-02T21:14:48.480Z,15.50
2017-10-02T21:17:15.932Z,15.40
2017-10-02T21:19:43.554Z,15.40
2017-10-02T21:22:11.773Z,15.30
2017-10-02T21:24:39.231Z,15.20
2017-10-02T21:27:06.711Z,15.20
2017-10-02T21:29:34.156Z,15.20
2017-10-02T21:32:01.620Z,15.10
2017-10-02T21:34:29.095Z,15.10
2017-10-02T21:36:56.515Z,15.10
2017-10-02T21:39:23.979Z,15.00
2017-10-02T21:41:51.449Z,15.00
2017-10-02T21:44:18.899Z,14.90
2017-10-02T21:46:46.321Z,15.00
2017-10-02T21:49:13.808Z,15.00
2017-10-02T21:51:41.248Z,14.90
2017-10-02T21:54:08.708Z,14.90
2017-10-02T21:56:36.171Z,14.90
2017-10-02T21:59:03.723Z,15.00
2017-10-02T22:01:31.184Z,15.00
2017-10-02T22:03:58.623Z,14.90
2017-10-02T22:06:26.109Z,14.90
2017-10-02T22:08:53.547Z,14.90
2017-10-02T22:11:21.066Z,14.90
2017-10-02T22:13:49.313Z,14.80
2017-10-02T22:16:16.760Z,14.80
2017-10-02T22:18:44.214Z,14.80
2017-10-02T22:21:11.661Z,14.80
2017-10-02T22:23:39.111Z,14.70
2017-10-02T22:26:06.567Z,14.70
2017-10-02T22:28:34.018Z,14.70
2017-10-02T22:31:01.464Z,14.70
2017-10-02T22:33:28.894Z,14.70
2017-10-02T22:35:56.382Z,14.70
2017-10-02T22:38:23.870Z,14.70
2017-10-02T22:40:51.305Z,14.70
2017-10-02T22:43:18.760Z,14.70
2017-10-02T22:45:46.200Z,14.70
2017-10-02T22:48:13.646Z,14.70
2017-10-02T22:50:41.111Z,14.70
2017-10-02T22:53:08.615Z,14.70
2017-10-02T22:55:36.876Z,14.70
2017-10-02T22:58:04.330Z,14.70
2017-10-02T23:00:31.771Z,14.70
2017-10-02T23:02:59.999Z,14.80
2017-10-02T23:05:27.464Z,14.80
2017-10-02T23:07:54.920Z,14.70
2017-10-02T23:10:22.360Z,14.60
2017-10-02T23:12:50.584Z,14.40
2017-10-02T23:15:18.012Z,14.40
2017-10-02T23:17:45.463Z,14.40
2017-10-02T23:20:12.901Z,14.30
2017-10-02T23:22:40.379Z,14.10
2017-10-02T23:25:07.839Z,14.00
2017-10-02T23:27:35.281Z,14.00
2017-10-02T23:30:02.756Z,14.00
2017-10-02T23:32:30.200Z,13.90
2017-10-02T23:34:57.640Z,13.80
2017-10-02T23:37:25.100Z,13.90
2017-10-02T23:39:52.547Z,13.90
2017-10-02T23:42:20.772Z,13.90
2017-10-02T23:44:48.231Z,13.90
2017-10-02T23:47:15.671Z,13.90
2017-10-02T23:49:43.124Z,13.80
2017-10-02T23:52:10.552Z,13.70
2017-10-02T23:54:38.027Z,13.60
2017-10-02T23:57:05.475Z,13.50
2017-10-02T23:59:32.934Z,13.40
